Terminal Aerodrome Forecast
Issued by NWS Cleveland, OH

Home | Current Version | Previous Version | Text Only | Print | Product List | Glossary Off
Versions: 1 2 3 4 5 6 7 8 9 10 11 12 13 14 15 16 17 18 19 20 21 22

000
FTUS41 KCLE 191720
TAFYNG
TAF
KYNG 191720Z 1918/2018 28014G22KT 5SM -SHSN OVC020
      TEMPO 1918/1922 1SM -SHSN OVC012
     FM192200 28012G20KT P6SM VCSH OVC020
     FM200300 27012KT P6SM OVC020
     FM200700 26012KT P6SM BKN035
     FM201100 23010KT P6SM BKN090
     FM201400 23011KT P6SM SCT200=

USA.gov is the U.S. government's official web portal to all federal, state and local government web resources and services.